Карточка аэропорта UMKK

Внимание!
Информация на этой странице в стадии наполнения.
Если вы не увидели какой-то информации, или заметили неточность - пожалуйста сообщите нам!
Спасибо!
Команда RU-STAFF
Название аэропортаХраброво
Название аэропорта (англ.)Khrabrovo
Превышение43 ft. (13.1 m.)
Координаты54°53.4', 20°35.55'
Высота перехода4000ft
Эшелон переходаFL50 (QNH>=1013hPa); FL60 (QNH<1013hPa); FL50 (QNH<977hPa);
Коды ответчика6620-6637
Зона ОрВДКалининград РПИ (UMKK)
Данные METARUMKK 050700Z 12006MPS 9999 OVC008 M01/M02 Q1026 R06/290095 NOSIG RMK QFE768/1024
Проноз погоды (TAF)UMKK 050458Z 0506/0606 13006G12MPS 6000 BKN006 TEMPO 0506/0508 1100 -SN -FZDZ BR OVC002 BECMG 0508/0509 BKN011 TEMPO 0509/0520 3100 -SN -FZDZ BR OVC005 BECMG 0520/0522 3900 -SNRA BR BKN005 OVC010 TEMPO 0522/0606 0700 +SN -FZRA OVC002 BECMG 0522/0524 16003G08MPS
NOTAMshow/hide NOTAM
AWOS   TABLE

Информация о ВПП

ВПП Длина ВПП (м.) Покрытие Курс ВПП Частота ILS
063350Асфальтобетон60110.3
243350Асфальтобетон240109.5

Диспетчерские позиции

Позывной Наименование органа УВД Частота
UMKK_APPКалининград-Подход126.0
UMKK_TWRКалининград-Вышка127.2



Спутниковое изображение